Terminal Aerodrome Forecast
Issued by NWS Grand Forks, ND

Home | Current Version | Previous Version | Graphics & Text | Print | Product List | Glossary On
Versions: 1 2 3 4 5 6 7 8 9 10 11 12 13 14 15 16
409
FTUS43 KFGF 181122
TAFFAR
TAF
KFAR 181122Z 1812/1912 27007KT P6SM FEW250
     FM182000 VRB03KT P6SM BKN200
     FM190800 10007KT P6SM BKN090=

USA.gov is the U.S. government's official web portal to all federal, state and local government web resources and services.